sensor_id;sensor_type;location;lat;lon;timestamp;temperature;humidity
44277;DHT22;29973;43.742;1.236;2023-03-01T00:01:20;-2.00;99.90
44277;DHT22;29973;43.742;1.236;2023-03-01T00:03:49;-2.10;99.90
44277;DHT22;29973;43.742;1.236;2023-03-01T00:06:16;-2.10;99.90
44277;DHT22;29973;43.742;1.236;2023-03-01T00:08:45;-2.20;99.90
44277;DHT22;29973;43.742;1.236;2023-03-01T00:11:13;-2.20;99.90
44277;DHT22;29973;43.742;1.236;2023-03-01T00:13:41;-2.20;99.90
44277;DHT22;29973;43.742;1.236;2023-03-01T00:16:30;-2.30;99.90
44277;DHT22;29973;43.742;1.236;2023-03-01T00:18:58;-2.20;99.90
44277;DHT22;29973;43.742;1.236;2023-03-01T00:21:26;-2.40;99.90
44277;DHT22;29973;43.742;1.236;2023-03-01T00:23:53;-2.50;99.90
44277;DHT22;29973;43.742;1.236;2023-03-01T00:26:20;-2.80;99.90
44277;DHT22;29973;43.742;1.236;2023-03-01T00:28:47;-2.70;99.90
44277;DHT22;29973;43.742;1.236;2023-03-01T00:31:16;-2.90;99.90
44277;DHT22;29973;43.742;1.236;2023-03-01T00:33:42;-3.00;99.90
44277;DHT22;29973;43.742;1.236;2023-03-01T00:36:09;-3.00;99.90
44277;DHT22;29973;43.742;1.236;2023-03-01T00:38:36;-3.00;99.90
44277;DHT22;29973;43.742;1.236;2023-03-01T00:41:08;-2.90;99.90
44277;DHT22;29973;43.742;1.236;2023-03-01T00:43:34;-2.80;99.90
44277;DHT22;29973;43.742;1.236;2023-03-01T00:46:13;-2.60;99.90
44277;DHT22;29973;43.742;1.236;2023-03-01T00:48:39;-2.70;99.90
44277;DHT22;29973;43.742;1.236;2023-03-01T00:53:35;-2.90;99.90
44277;DHT22;29973;43.742;1.236;2023-03-01T00:56:02;-2.80;99.90
44277;DHT22;29973;43.742;1.236;2023-03-01T00:58:29;-2.80;99.90
44277;DHT22;29973;43.742;1.236;2023-03-01T01:00:55;-2.80;99.90
44277;DHT22;29973;43.742;1.236;2023-03-01T01:03:21;-2.80;99.90
44277;DHT22;29973;43.742;1.236;2023-03-01T01:05:51;-3.00;99.90
44277;DHT22;29973;43.742;1.236;2023-03-01T01:08:18;-3.10;99.90
44277;DHT22;29973;43.742;1.236;2023-03-01T01:10:45;-3.20;99.90
44277;DHT22;29973;43.742;1.236;2023-03-01T01:13:11;-3.30;99.90
44277;DHT22;29973;43.742;1.236;2023-03-01T01:15:37;-3.40;99.90
44277;DHT22;29973;43.742;1.236;2023-03-01T01:18:03;-3.50;99.90
44277;DHT22;29973;43.742;1.236;2023-03-01T01:20:28;-3.40;99.90
44277;DHT22;29973;43.742;1.236;2023-03-01T01:22:54;-3.40;99.90
44277;DHT22;29973;43.742;1.236;2023-03-01T01:25:20;-3.30;99.90
44277;DHT22;29973;43.742;1.236;2023-03-01T01:27:46;-3.40;99.90
44277;DHT22;29973;43.742;1.236;2023-03-01T01:30:12;-3.30;99.90
44277;DHT22;29973;43.742;1.236;2023-03-01T01:32:38;-3.30;99.90
44277;DHT22;29973;43.742;1.236;2023-03-01T01:35:04;-3.40;99.90
44277;DHT22;29973;43.742;1.236;2023-03-01T01:37:30;-3.40;99.90
44277;DHT22;29973;43.742;1.236;2023-03-01T01:39:59;-3.40;99.90
44277;DHT22;29973;43.742;1.236;2023-03-01T01:42:26;-3.50;99.90
44277;DHT22;29973;43.742;1.236;2023-03-01T01:45:29;-3.50;99.90
44277;DHT22;29973;43.742;1.236;2023-03-01T01:48:00;-3.50;99.90
44277;DHT22;29973;43.742;1.236;2023-03-01T01:50:27;-3.60;99.90
44277;DHT22;29973;43.742;1.236;2023-03-01T01:53:05;-3.50;99.90
44277;DHT22;29973;43.742;1.236;2023-03-01T01:55:32;-3.50;99.90
44277;DHT22;29973;43.742;1.236;2023-03-01T01:58:02;-3.60;99.90
44277;DHT22;29973;43.742;1.236;2023-03-01T02:00:29;-3.90;99.90
44277;DHT22;29973;43.742;1.236;2023-03-01T02:03:01;-3.80;99.90
44277;DHT22;29973;43.742;1.236;2023-03-01T02:08:00;-3.70;99.90
44277;DHT22;29973;43.742;1.236;2023-03-01T02:10:27;-3.70;99.90
44277;DHT22;29973;43.742;1.236;2023-03-01T02:12:54;-3.80;99.90
44277;DHT22;29973;43.742;1.236;2023-03-01T02:15:22;-3.80;99.90
44277;DHT22;29973;43.742;1.236;2023-03-01T02:17:48;-3.90;99.90
44277;DHT22;29973;43.742;1.236;2023-03-01T02:20:23;-3.90;99.90
44277;DHT22;29973;43.742;1.236;2023-03-01T02:22:52;-3.90;99.90
44277;DHT22;29973;43.742;1.236;2023-03-01T02:28:05;-4.00;99.90
44277;DHT22;29973;43.742;1.236;2023-03-01T02:30:33;-4.10;99.90
44277;DHT22;29973;43.742;1.236;2023-03-01T02:33:02;-4.40;99.90
44277;DHT22;29973;43.742;1.236;2023-03-01T02:35:36;-4.30;99.90
44277;DHT22;29973;43.742;1.236;2023-03-01T02:38:03;-4.20;99.90
44277;DHT22;29973;43.742;1.236;2023-03-01T02:40:33;-4.20;99.90
44277;DHT22;29973;43.742;1.236;2023-03-01T02:43:00;-4.20;99.90
44277;DHT22;29973;43.742;1.236;2023-03-01T02:45:26;-4.20;99.90
44277;DHT22;29973;43.742;1.236;2023-03-01T02:47:56;-4.30;99.90
44277;DHT22;29973;43.742;1.236;2023-03-01T02:55:26;-4.30;99.90
44277;DHT22;29973;43.742;1.236;2023-03-01T02:57:53;-4.40;99.90
44277;DHT22;29973;43.742;1.236;2023-03-01T03:00:26;-4.30;99.90
44277;DHT22;29973;43.742;1.236;2023-03-01T03:02:54;-4.40;99.90
44277;DHT22;29973;43.742;1.236;2023-03-01T03:05:30;-4.50;99.90
44277;DHT22;29973;43.742;1.236;2023-03-01T03:07:56;-4.40;99.90
44277;DHT22;29973;43.742;1.236;2023-03-01T03:10:28;-4.30;99.90
44277;DHT22;29973;43.742;1.236;2023-03-01T03:13:00;-4.30;99.90
44277;DHT22;29973;43.742;1.236;2023-03-01T03:15:26;-4.70;99.90
44277;DHT22;29973;43.742;1.236;2023-03-01T03:17:53;-4.80;99.90
44277;DHT22;29973;43.742;1.236;2023-03-01T03:20:21;-5.00;99.90
44277;DHT22;29973;43.742;1.236;2023-03-01T03:22:52;-5.20;99.90
44277;DHT22;29973;43.742;1.236;2023-03-01T03:25:19;-5.10;99.90
44277;DHT22;29973;43.742;1.236;2023-03-01T03:27:46;-4.80;99.90
44277;DHT22;29973;43.742;1.236;2023-03-01T03:30:18;-4.60;99.90
44277;DHT22;29973;43.742;1.236;2023-03-01T03:32:45;-4.60;99.90
44277;DHT22;29973;43.742;1.236;2023-03-01T03:35:25;-4.50;99.90
44277;DHT22;29973;43.742;1.236;2023-03-01T03:37:52;-4.50;99.90
44277;DHT22;29973;43.742;1.236;2023-03-01T03:40:51;-4.50;99.90
44277;DHT22;29973;43.742;1.236;2023-03-01T03:43:20;-4.50;99.90
44277;DHT22;29973;43.742;1.236;2023-03-01T03:45:47;-4.60;99.90
44277;DHT22;29973;43.742;1.236;2023-03-01T03:48:13;-4.60;99.90
44277;DHT22;29973;43.742;1.236;2023-03-01T03:50:40;-4.70;99.90
44277;DHT22;29973;43.742;1.236;2023-03-01T03:53:09;-5.00;99.90
44277;DHT22;29973;43.742;1.236;2023-03-01T03:55:35;-5.00;99.90
44277;DHT22;29973;43.742;1.236;2023-03-01T03:58:06;-5.10;99.90
44277;DHT22;29973;43.742;1.236;2023-03-01T04:00:34;-5.00;99.90
44277;DHT22;29973;43.742;1.236;2023-03-01T04:03:00;-5.00;99.90
44277;DHT22;29973;43.742;1.236;2023-03-01T04:05:26;-5.00;99.90
44277;DHT22;29973;43.742;1.236;2023-03-01T04:07:52;-5.10;99.90
44277;DHT22;29973;43.742;1.236;2023-03-01T04:10:31;-5.00;99.90
44277;DHT22;29973;43.742;1.236;2023-03-01T04:12:57;-5.00;99.90
44277;DHT22;29973;43.742;1.236;2023-03-01T04:15:24;-5.00;99.90
44277;DHT22;29973;43.742;1.236;2023-03-01T04:17:51;-5.20;99.90
44277;DHT22;29973;43.742;1.236;2023-03-01T04:20:19;-5.50;99.90
44277;DHT22;29973;43.742;1.236;2023-03-01T04:22:52;-5.60;99.90
44277;DHT22;29973;43.742;1.236;2023-03-01T04:25:22;-5.50;99.90
44277;DHT22;29973;43.742;1.236;2023-03-01T04:27:48;-5.40;99.90
44277;DHT22;29973;43.742;1.236;2023-03-01T04:30:14;-5.30;99.90
44277;DHT22;29973;43.742;1.236;2023-03-01T04:32:40;-5.20;99.90
44277;DHT22;29973;43.742;1.236;2023-03-01T04:35:06;-5.20;99.90
44277;DHT22;29973;43.742;1.236;2023-03-01T04:37:32;-5.20;99.90
44277;DHT22;29973;43.742;1.236;2023-03-01T04:39:58;-5.20;99.90
44277;DHT22;29973;43.742;1.236;2023-03-01T04:42:24;-5.20;99.90
44277;DHT22;29973;43.742;1.236;2023-03-01T04:44:49;-5.20;99.90
44277;DHT22;29973;43.742;1.236;2023-03-01T04:47:18;-5.20;99.90
44277;DHT22;29973;43.742;1.236;2023-03-01T04:49:43;-5.20;99.90
44277;DHT22;29973;43.742;1.236;2023-03-01T04:52:09;-5.30;99.90
44277;DHT22;29973;43.742;1.236;2023-03-01T04:54:35;-5.40;99.90
44277;DHT22;29973;43.742;1.236;2023-03-01T04:57:02;-5.60;99.90
44277;DHT22;29973;43.742;1.236;2023-03-01T04:59:28;-5.90;99.90
44277;DHT22;29973;43.742;1.236;2023-03-01T05:01:55;-5.90;99.90
44277;DHT22;29973;43.742;1.236;2023-03-01T05:04:22;-5.90;99.90
44277;DHT22;29973;43.742;1.236;2023-03-01T05:06:48;-6.00;99.90
44277;DHT22;29973;43.742;1.236;2023-03-01T05:09:14;-5.80;99.90
44277;DHT22;29973;43.742;1.236;2023-03-01T05:11:40;-5.50;99.90
44277;DHT22;29973;43.742;1.236;2023-03-01T05:14:07;-5.60;99.90
44277;DHT22;29973;43.742;1.236;2023-03-01T05:16:34;-5.70;99.90
44277;DHT22;29973;43.742;1.236;2023-03-01T05:19:02;-5.70;99.90
44277;DHT22;29973;43.742;1.236;2023-03-01T05:21:37;-5.60;99.90
44277;DHT22;29973;43.742;1.236;2023-03-01T05:24:23;-5.60;99.90
44277;DHT22;29973;43.742;1.236;2023-03-01T05:26:50;-5.80;99.90
44277;DHT22;29973;43.742;1.236;2023-03-01T05:29:21;-5.90;99.90
44277;DHT22;29973;43.742;1.236;2023-03-01T05:31:59;-5.90;99.90
44277;DHT22;29973;43.742;1.236;2023-03-01T05:34:32;-5.80;99.90
44277;DHT22;29973;43.742;1.236;2023-03-01T05:36:58;-5.70;99.90
44277;DHT22;29973;43.742;1.236;2023-03-01T05:39:25;-5.70;99.90
44277;DHT22;29973;43.742;1.236;2023-03-01T05:41:53;-5.70;99.90
44277;DHT22;29973;43.742;1.236;2023-03-01T05:44:19;-5.70;99.90
44277;DHT22;29973;43.742;1.236;2023-03-01T05:46:46;-5.60;99.90
44277;DHT22;29973;43.742;1.236;2023-03-01T05:49:12;-5.70;99.90
44277;DHT22;29973;43.742;1.236;2023-03-01T05:51:42;-5.90;99.90
44277;DHT22;29973;43.742;1.236;2023-03-01T05:54:09;-5.90;99.90
44277;DHT22;29973;43.742;1.236;2023-03-01T05:56:36;-5.90;99.90
44277;DHT22;29973;43.742;1.236;2023-03-01T05:59:03;-5.90;99.90
44277;DHT22;29973;43.742;1.236;2023-03-01T06:01:29;-5.90;99.90
44277;DHT22;29973;43.742;1.236;2023-03-01T06:03:55;-5.90;99.90
44277;DHT22;29973;43.742;1.236;2023-03-01T06:06:22;-5.90;99.90
44277;DHT22;29973;43.742;1.236;2023-03-01T06:08:48;-6.00;99.90
44277;DHT22;29973;43.742;1.236;2023-03-01T06:11:13;-6.10;99.90
44277;DHT22;29973;43.742;1.236;2023-03-01T06:13:41;-6.20;99.90
44277;DHT22;29973;43.742;1.236;2023-03-01T06:16:07;-6.20;99.90
44277;DHT22;29973;43.742;1.236;2023-03-01T06:18:33;-6.10;99.90
44277;DHT22;29973;43.742;1.236;2023-03-01T06:20:59;-6.10;99.90
44277;DHT22;29973;43.742;1.236;2023-03-01T06:23:25;-6.20;99.90
44277;DHT22;29973;43.742;1.236;2023-03-01T06:25:51;-6.30;99.90
44277;DHT22;29973;43.742;1.236;2023-03-01T06:28:17;-6.30;99.90
44277;DHT22;29973;43.742;1.236;2023-03-01T06:30:43;-6.30;99.90
44277;DHT22;29973;43.742;1.236;2023-03-01T06:33:08;-6.00;99.90
44277;DHT22;29973;43.742;1.236;2023-03-01T06:35:34;-6.00;99.90
44277;DHT22;29973;43.742;1.236;2023-03-01T06:38:02;-5.90;99.90
44277;DHT22;29973;43.742;1.236;2023-03-01T06:40:29;-5.90;99.90
44277;DHT22;29973;43.742;1.236;2023-03-01T06:42:54;-6.00;99.90
44277;DHT22;29973;43.742;1.236;2023-03-01T06:45:20;-5.90;99.90
44277;DHT22;29973;43.742;1.236;2023-03-01T06:47:46;-6.00;99.90
44277;DHT22;29973;43.742;1.236;2023-03-01T06:50:13;-6.00;99.90
44277;DHT22;29973;43.742;1.236;2023-03-01T06:52:39;-6.00;99.90
44277;DHT22;29973;43.742;1.236;2023-03-01T06:55:05;-6.00;99.90
44277;DHT22;29973;43.742;1.236;2023-03-01T06:57:31;-5.90;99.90
44277;DHT22;29973;43.742;1.236;2023-03-01T06:59:57;-5.80;99.90
44277;DHT22;29973;43.742;1.236;2023-03-01T07:02:23;-5.70;99.90
44277;DHT22;29973;43.742;1.236;2023-03-01T07:04:49;-5.70;99.90
44277;DHT22;29973;43.742;1.236;2023-03-01T07:07:16;-5.70;99.90
44277;DHT22;29973;43.742;1.236;2023-03-01T07:09:44;-5.80;99.90
44277;DHT22;29973;43.742;1.236;2023-03-01T07:12:09;-5.80;99.90
44277;DHT22;29973;43.742;1.236;2023-03-01T07:14:35;-5.70;99.90
44277;DHT22;29973;43.742;1.236;2023-03-01T07:17:01;-5.80;99.90
44277;DHT22;29973;43.742;1.236;2023-03-01T07:19:27;-5.60;99.90
44277;DHT22;29973;43.742;1.236;2023-03-01T07:21:52;-5.50;99.90
44277;DHT22;29973;43.742;1.236;2023-03-01T07:24:18;-5.40;99.90
44277;DHT22;29973;43.742;1.236;2023-03-01T07:26:47;-5.30;99.90
44277;DHT22;29973;43.742;1.236;2023-03-01T07:29:13;-5.20;99.90
44277;DHT22;29973;43.742;1.236;2023-03-01T07:31:38;-5.10;99.90
44277;DHT22;29973;43.742;1.236;2023-03-01T07:34:04;-5.00;99.90
44277;DHT22;29973;43.742;1.236;2023-03-01T07:36:30;-4.70;99.90
44277;DHT22;29973;43.742;1.236;2023-03-01T07:38:56;-4.60;99.90
44277;DHT22;29973;43.742;1.236;2023-03-01T07:41:22;-4.50;99.90
44277;DHT22;29973;43.742;1.236;2023-03-01T07:43:47;-4.30;99.90
44277;DHT22;29973;43.742;1.236;2023-03-01T07:46:13;-4.20;99.90
44277;DHT22;29973;43.742;1.236;2023-03-01T07:48:39;-4.10;99.90
44277;DHT22;29973;43.742;1.236;2023-03-01T07:51:06;-4.00;99.90
44277;DHT22;29973;43.742;1.236;2023-03-01T07:53:32;-3.80;99.90
44277;DHT22;29973;43.742;1.236;2023-03-01T07:56:12;-3.60;99.90
44277;DHT22;29973;43.742;1.236;2023-03-01T07:58:40;-3.30;99.90
44277;DHT22;29973;43.742;1.236;2023-03-01T08:01:09;-3.10;99.90
44277;DHT22;29973;43.742;1.236;2023-03-01T08:03:36;-2.90;99.90
44277;DHT22;29973;43.742;1.236;2023-03-01T08:06:04;-2.70;99.90
44277;DHT22;29973;43.742;1.236;2023-03-01T08:08:30;-2.50;99.90
44277;DHT22;29973;43.742;1.236;2023-03-01T08:10:57;-2.30;99.90
44277;DHT22;29973;43.742;1.236;2023-03-01T08:13:23;-2.10;99.90
44277;DHT22;29973;43.742;1.236;2023-03-01T08:15:49;-1.80;99.90
44277;DHT22;29973;43.742;1.236;2023-03-01T08:18:16;-1.60;99.90
44277;DHT22;29973;43.742;1.236;2023-03-01T08:20:42;-1.50;99.90
44277;DHT22;29973;43.742;1.236;2023-03-01T08:23:08;-1.50;99.90
44277;DHT22;29973;43.742;1.236;2023-03-01T08:25:34;-1.30;99.90
44277;DHT22;29973;43.742;1.236;2023-03-01T08:28:00;-1.20;99.90
44277;DHT22;29973;43.742;1.236;2023-03-01T08:30:25;-1.00;99.90
44277;DHT22;29973;43.742;1.236;2023-03-01T08:32:51;-0.80;99.90
44277;DHT22;29973;43.742;1.236;2023-03-01T08:35:18;-0.60;99.90
44277;DHT22;29973;43.742;1.236;2023-03-01T08:37:44;-0.50;99.90
44277;DHT22;29973;43.742;1.236;2023-03-01T08:40:10;-0.50;99.90
44277;DHT22;29973;43.742;1.236;2023-03-01T08:42:36;-0.30;99.90
44277;DHT22;29973;43.742;1.236;2023-03-01T08:45:06;-0.10;99.90
44277;DHT22;29973;43.742;1.236;2023-03-01T08:47:32;0.10;99.90
44277;DHT22;29973;43.742;1.236;2023-03-01T08:50:01;0.10;99.90
44277;DHT22;29973;43.742;1.236;2023-03-01T08:52:27;0.40;99.90
44277;DHT22;29973;43.742;1.236;2023-03-01T08:54:55;0.90;99.90
44277;DHT22;29973;43.742;1.236;2023-03-01T08:57:21;0.90;99.90
44277;DHT22;29973;43.742;1.236;2023-03-01T08:59:47;1.20;99.90
44277;DHT22;29973;43.742;1.236;2023-03-01T09:02:15;1.30;99.90
44277;DHT22;29973;43.742;1.236;2023-03-01T09:04:44;1.50;99.90
44277;DHT22;29973;43.742;1.236;2023-03-01T09:07:13;1.80;99.90
44277;DHT22;29973;43.742;1.236;2023-03-01T09:09:38;2.00;99.90
44277;DHT22;29973;43.742;1.236;2023-03-01T09:12:05;2.30;99.90
44277;DHT22;29973;43.742;1.236;2023-03-01T09:14:31;2.50;99.90
44277;DHT22;29973;43.742;1.236;2023-03-01T09:16:57;2.90;99.90
44277;DHT22;29973;43.742;1.236;2023-03-01T09:19:23;2.90;99.90
44277;DHT22;29973;43.742;1.236;2023-03-01T09:21:54;3.10;99.90
44277;DHT22;29973;43.742;1.236;2023-03-01T09:24:25;3.10;99.90
44277;DHT22;29973;43.742;1.236;2023-03-01T09:26:55;3.10;99.90
44277;DHT22;29973;43.742;1.236;2023-03-01T09:29:26;3.20;99.90
44277;DHT22;29973;43.742;1.236;2023-03-01T09:31:55;3.50;99.90
44277;DHT22;29973;43.742;1.236;2023-03-01T09:34:22;3.60;99.90
44277;DHT22;29973;43.742;1.236;2023-03-01T09:36:51;3.80;99.90
44277;DHT22;29973;43.742;1.236;2023-03-01T09:39:22;4.10;99.90
44277;DHT22;29973;43.742;1.236;2023-03-01T09:41:58;4.10;99.90
44277;DHT22;29973;43.742;1.236;2023-03-01T09:44:54;4.10;99.90
44277;DHT22;29973;43.742;1.236;2023-03-01T09:47:26;4.20;99.90
44277;DHT22;29973;43.742;1.236;2023-03-01T09:52:48;4.10;99.90
44277;DHT22;29973;43.742;1.236;2023-03-01T09:55:20;4.50;99.90
44277;DHT22;29973;43.742;1.236;2023-03-01T09:57:56;4.20;99.90
44277;DHT22;29973;43.742;1.236;2023-03-01T10:00:47;4.70;99.90
44277;DHT22;29973;43.742;1.236;2023-03-01T10:03:36;4.90;99.90
44277;DHT22;29973;43.742;1.236;2023-03-01T10:06:28;4.80;99.90
44277;DHT22;29973;43.742;1.236;2023-03-01T10:09:20;4.90;99.90
44277;DHT22;29973;43.742;1.236;2023-03-01T10:11:55;6.10;99.90
44277;DHT22;29973;43.742;1.236;2023-03-01T10:14:36;8.00;99.90
44277;DHT22;29973;43.742;1.236;2023-03-01T10:17:28;8.60;84.20
44277;DHT22;29973;43.742;1.236;2023-03-01T10:20:25;8.80;83.40
44277;DHT22;29973;43.742;1.236;2023-03-01T10:23:08;8.90;73.70
44277;DHT22;29973;43.742;1.236;2023-03-01T10:26:01;9.20;72.20
44277;DHT22;29973;43.742;1.236;2023-03-01T10:31:22;10.80;66.70
44277;DHT22;29973;43.742;1.236;2023-03-01T10:34:04;10.70;65.10
44277;DHT22;29973;43.742;1.236;2023-03-01T10:36:38;9.70;64.50
44277;DHT22;29973;43.742;1.236;2023-03-01T10:42:48;9.60;65.00
44277;DHT22;29973;43.742;1.236;2023-03-01T10:45:31;10.00;58.00
44277;DHT22;29973;43.742;1.236;2023-03-01T10:50:34;10.50;59.60
44277;DHT22;29973;43.742;1.236;2023-03-01T10:53:02;13.00;53.60
44277;DHT22;29973;43.742;1.236;2023-03-01T10:55:57;13.10;54.60
44277;DHT22;29973;43.742;1.236;2023-03-01T10:58:24;12.10;55.50
44277;DHT22;29973;43.742;1.236;2023-03-01T11:00:58;11.80;55.70
44277;DHT22;29973;43.742;1.236;2023-03-01T11:03:34;12.60;53.50
44277;DHT22;29973;43.742;1.236;2023-03-01T11:08:46;9.00;54.50
44277;DHT22;29973;43.742;1.236;2023-03-01T11:14:13;10.20;52.50
44277;DHT22;29973;43.742;1.236;2023-03-01T11:16:42;11.20;53.40
44277;DHT22;29973;43.742;1.236;2023-03-01T11:21:39;10.90;52.60
44277;DHT22;29973;43.742;1.236;2023-03-01T11:24:10;11.30;52.70
44277;DHT22;29973;43.742;1.236;2023-03-01T11:26:39;12.90;52.20
44277;DHT22;29973;43.742;1.236;2023-03-01T11:29:21;11.30;53.30
44277;DHT22;29973;43.742;1.236;2023-03-01T11:31:51;11.20;56.00
44277;DHT22;29973;43.742;1.236;2023-03-01T11:34:28;11.80;53.20
44277;DHT22;29973;43.742;1.236;2023-03-01T11:37:02;13.00;51.50
44277;DHT22;29973;43.742;1.236;2023-03-01T11:39:53;11.70;51.50
44277;DHT22;29973;43.742;1.236;2023-03-01T11:45:29;9.40;53.00
44277;DHT22;29973;43.742;1.236;2023-03-01T11:50:47;12.30;52.10
44277;DHT22;29973;43.742;1.236;2023-03-01T11:53:39;10.60;55.60
44277;DHT22;29973;43.742;1.236;2023-03-01T11:56:34;12.70;55.00
44277;DHT22;29973;43.742;1.236;2023-03-01T12:02:34;11.40;53.50
44277;DHT22;29973;43.742;1.236;2023-03-01T12:07:39;14.20;51.70
44277;DHT22;29973;43.742;1.236;2023-03-01T12:15:56;13.30;51.20
44277;DHT22;29973;43.742;1.236;2023-03-01T12:27:35;13.20;48.50
44277;DHT22;29973;43.742;1.236;2023-03-01T12:44:30;11.60;51.10
44277;DHT22;29973;43.742;1.236;2023-03-01T12:50:17;11.70;50.80
44277;DHT22;29973;43.742;1.236;2023-03-01T12:52:37;12.40;49.70
44277;DHT22;29973;43.742;1.236;2023-03-01T12:55:15;11.30;50.20
44277;DHT22;29973;43.742;1.236;2023-03-01T12:57:52;13.60;47.20
44277;DHT22;29973;43.742;1.236;2023-03-01T13:00:35;14.40;49.00
44277;DHT22;29973;43.742;1.236;2023-03-01T13:08:59;12.30;45.70
44277;DHT22;29973;43.742;1.236;2023-03-01T13:11:30;12.40;48.60
44277;DHT22;29973;43.742;1.236;2023-03-01T13:16:47;12.50;48.00
44277;DHT22;29973;43.742;1.236;2023-03-01T13:19:28;12.70;46.90
44277;DHT22;29973;43.742;1.236;2023-03-01T13:22:39;14.30;47.00
44277;DHT22;29973;43.742;1.236;2023-03-01T13:25:19;13.70;44.80
44277;DHT22;29973;43.742;1.236;2023-03-01T13:27:46;14.40;46.80
44277;DHT22;29973;43.742;1.236;2023-03-01T13:35:54;13.60;47.10
44277;DHT22;29973;43.742;1.236;2023-03-01T13:41:08;12.70;50.30
44277;DHT22;29973;43.742;1.236;2023-03-01T13:43:37;14.20;43.10
44277;DHT22;29973;43.742;1.236;2023-03-01T13:46:21;13.40;44.60
44277;DHT22;29973;43.742;1.236;2023-03-01T13:48:50;13.90;47.30
44277;DHT22;29973;43.742;1.236;2023-03-01T13:51:22;11.60;48.30
44277;DHT22;29973;43.742;1.236;2023-03-01T13:53:49;13.80;46.20
44277;DHT22;29973;43.742;1.236;2023-03-01T13:56:21;13.20;48.30
44277;DHT22;29973;43.742;1.236;2023-03-01T13:58:53;14.80;47.30
44277;DHT22;29973;43.742;1.236;2023-03-01T14:01:31;15.30;44.40
44277;DHT22;29973;43.742;1.236;2023-03-01T14:03:57;16.40;43.30
44277;DHT22;29973;43.742;1.236;2023-03-01T14:06:27;16.00;43.50
44277;DHT22;29973;43.742;1.236;2023-03-01T14:09:04;13.70;44.50
44277;DHT22;29973;43.742;1.236;2023-03-01T14:12:02;15.00;43.20
44277;DHT22;29973;43.742;1.236;2023-03-01T14:14:54;14.30;44.80
44277;DHT22;29973;43.742;1.236;2023-03-01T14:22:47;15.90;43.40
44277;DHT22;29973;43.742;1.236;2023-03-01T14:25:26;16.10;41.60
44277;DHT22;29973;43.742;1.236;2023-03-01T14:30:26;14.20;42.80
44277;DHT22;29973;43.742;1.236;2023-03-01T14:32:57;14.90;42.30
44277;DHT22;29973;43.742;1.236;2023-03-01T14:35:25;13.80;45.40
44277;DHT22;29973;43.742;1.236;2023-03-01T14:37:50;15.70;45.10
44277;DHT22;29973;43.742;1.236;2023-03-01T14:40:23;15.60;41.70
44277;DHT22;29973;43.742;1.236;2023-03-01T14:42:49;15.90;42.30
44277;DHT22;29973;43.742;1.236;2023-03-01T14:45:16;17.40;39.10
44277;DHT22;29973;43.742;1.236;2023-03-01T14:47:43;15.50;41.80
44277;DHT22;29973;43.742;1.236;2023-03-01T14:50:23;15.80;41.30
44277;DHT22;29973;43.742;1.236;2023-03-01T14:52:52;15.70;41.60
44277;DHT22;29973;43.742;1.236;2023-03-01T14:55:27;16.50;41.70
44277;DHT22;29973;43.742;1.236;2023-03-01T14:57:54;16.10;41.20
44277;DHT22;29973;43.742;1.236;2023-03-01T15:00:27;16.60;41.80
44277;DHT22;29973;43.742;1.236;2023-03-01T15:02:55;16.70;41.90
44277;DHT22;29973;43.742;1.236;2023-03-01T15:05:30;16.80;40.10
44277;DHT22;29973;43.742;1.236;2023-03-01T15:08:01;16.40;41.70
44277;DHT22;29973;43.742;1.236;2023-03-01T15:10:31;14.70;44.00
44277;DHT22;29973;43.742;1.236;2023-03-01T15:13:10;16.40;41.10
44277;DHT22;29973;43.742;1.236;2023-03-01T15:15:39;13.70;43.70
44277;DHT22;29973;43.742;1.236;2023-03-01T15:18:15;13.70;43.90
44277;DHT22;29973;43.742;1.236;2023-03-01T15:20:42;14.70;44.50
44277;DHT22;29973;43.742;1.236;2023-03-01T15:23:22;14.10;45.00
44277;DHT22;29973;43.742;1.236;2023-03-01T15:25:50;13.60;46.50
44277;DHT22;29973;43.742;1.236;2023-03-01T15:28:34;13.90;46.60
44277;DHT22;29973;43.742;1.236;2023-03-01T15:35:58;14.60;45.20
44277;DHT22;29973;43.742;1.236;2023-03-01T15:38:34;15.40;43.70
44277;DHT22;29973;43.742;1.236;2023-03-01T15:43:48;12.90;47.20
44277;DHT22;29973;43.742;1.236;2023-03-01T15:46:30;13.10;48.60
44277;DHT22;29973;43.742;1.236;2023-03-01T15:49:02;15.00;45.80
44277;DHT22;29973;43.742;1.236;2023-03-01T15:51:37;14.10;45.80
44277;DHT22;29973;43.742;1.236;2023-03-01T15:54:18;12.60;47.70
44277;DHT22;29973;43.742;1.236;2023-03-01T15:56:45;12.40;47.30
44277;DHT22;29973;43.742;1.236;2023-03-01T15:59:12;11.40;50.70
44277;DHT22;29973;43.742;1.236;2023-03-01T16:01:43;12.30;49.40
44277;DHT22;29973;43.742;1.236;2023-03-01T16:04:13;12.50;51.10
44277;DHT22;29973;43.742;1.236;2023-03-01T16:06:46;11.70;50.90
44277;DHT22;29973;43.742;1.236;2023-03-01T16:09:12;13.90;49.20
44277;DHT22;29973;43.742;1.236;2023-03-01T16:11:38;12.90;49.30
44277;DHT22;29973;43.742;1.236;2023-03-01T16:14:06;11.10;51.30
44277;DHT22;29973;43.742;1.236;2023-03-01T16:16:31;11.20;52.70
44277;DHT22;29973;43.742;1.236;2023-03-01T16:18:57;12.50;49.90
44277;DHT22;29973;43.742;1.236;2023-03-01T16:21:24;13.30;49.90
44277;DHT22;29973;43.742;1.236;2023-03-01T16:23:51;13.10;48.30
44277;DHT22;29973;43.742;1.236;2023-03-01T16:26:17;12.40;51.00
44277;DHT22;29973;43.742;1.236;2023-03-01T16:28:45;12.30;50.20
44277;DHT22;29973;43.742;1.236;2023-03-01T16:31:11;12.00;49.80
44277;DHT22;29973;43.742;1.236;2023-03-01T16:33:38;10.90;53.00
44277;DHT22;29973;43.742;1.236;2023-03-01T16:36:09;10.70;54.30
44277;DHT22;29973;43.742;1.236;2023-03-01T16:38:35;11.10;53.70
44277;DHT22;29973;43.742;1.236;2023-03-01T16:41:00;9.80;55.00
44277;DHT22;29973;43.742;1.236;2023-03-01T16:43:26;9.10;57.00
44277;DHT22;29973;43.742;1.236;2023-03-01T16:45:52;8.40;58.10
44277;DHT22;29973;43.742;1.236;2023-03-01T16:48:18;7.20;61.40
44277;DHT22;29973;43.742;1.236;2023-03-01T16:50:44;6.80;64.10
44277;DHT22;29973;43.742;1.236;2023-03-01T16:53:10;6.70;65.20
44277;DHT22;29973;43.742;1.236;2023-03-01T16:55:36;6.40;66.10
44277;DHT22;29973;43.742;1.236;2023-03-01T16:58:02;6.40;66.80
44277;DHT22;29973;43.742;1.236;2023-03-01T17:00:29;6.20;68.00
44277;DHT22;29973;43.742;1.236;2023-03-01T17:02:55;6.20;69.70
44277;DHT22;29973;43.742;1.236;2023-03-01T17:05:21;6.10;70.00
44277;DHT22;29973;43.742;1.236;2023-03-01T17:07:49;6.20;70.00
44277;DHT22;29973;43.742;1.236;2023-03-01T17:10:14;6.10;71.60
44277;DHT22;29973;43.742;1.236;2023-03-01T17:12:40;6.00;72.10
44277;DHT22;29973;43.742;1.236;2023-03-01T17:15:06;5.80;74.10
44277;DHT22;29973;43.742;1.236;2023-03-01T17:17:37;5.60;74.20
44277;DHT22;29973;43.742;1.236;2023-03-01T17:20:03;5.50;75.50
44277;DHT22;29973;43.742;1.236;2023-03-01T17:22:28;5.40;76.50
44277;DHT22;29973;43.742;1.236;2023-03-01T17:24:54;5.00;79.40
44277;DHT22;29973;43.742;1.236;2023-03-01T17:27:20;4.90;79.90
44277;DHT22;29973;43.742;1.236;2023-03-01T17:29:46;4.90;81.50
44277;DHT22;29973;43.742;1.236;2023-03-01T17:32:12;4.80;81.10
44277;DHT22;29973;43.742;1.236;2023-03-01T17:34:38;4.50;84.10
44277;DHT22;29973;43.742;1.236;2023-03-01T17:37:04;4.40;85.00
44277;DHT22;29973;43.742;1.236;2023-03-01T17:39:30;4.20;87.50